sensor_id;sensor_type;location;lat;lon;timestamp;temperature;humidity
21759;DHT22;11041;50.854;20.580;2024-03-08T00:02:16;-2.60;99.90
21759;DHT22;11041;50.854;20.580;2024-03-08T00:04:44;-2.60;99.90
21759;DHT22;11041;50.854;20.580;2024-03-08T00:07:11;-2.60;99.90
21759;DHT22;11041;50.854;20.580;2024-03-08T00:09:39;-2.50;99.90
21759;DHT22;11041;50.854;20.580;2024-03-08T00:12:08;-2.60;99.90
21759;DHT22;11041;50.854;20.580;2024-03-08T00:14:36;-2.60;99.90
21759;DHT22;11041;50.854;20.580;2024-03-08T00:17:03;-2.60;99.90
21759;DHT22;11041;50.854;20.580;2024-03-08T00:19:30;-2.60;99.90
21759;DHT22;11041;50.854;20.580;2024-03-08T00:21:57;-2.60;99.90
21759;DHT22;11041;50.854;20.580;2024-03-08T00:24:25;-2.60;99.90
21759;DHT22;11041;50.854;20.580;2024-03-08T00:26:52;-2.70;99.90
21759;DHT22;11041;50.854;20.580;2024-03-08T00:29:20;-2.80;99.90
21759;DHT22;11041;50.854;20.580;2024-03-08T00:31:48;-2.60;99.90
21759;DHT22;11041;50.854;20.580;2024-03-08T00:34:14;-2.50;99.90
21759;DHT22;11041;50.854;20.580;2024-03-08T00:36:41;-2.40;99.90
21759;DHT22;11041;50.854;20.580;2024-03-08T00:39:08;-2.40;99.90
21759;DHT22;11041;50.854;20.580;2024-03-08T00:41:34;-2.40;99.90
21759;DHT22;11041;50.854;20.580;2024-03-08T00:44:03;-2.40;99.90
21759;DHT22;11041;50.854;20.580;2024-03-08T00:46:30;-2.40;99.90
21759;DHT22;11041;50.854;20.580;2024-03-08T00:48:58;-2.40;99.90
21759;DHT22;11041;50.854;20.580;2024-03-08T00:51:24;-2.40;99.90
21759;DHT22;11041;50.854;20.580;2024-03-08T00:53:54;-2.70;99.90
21759;DHT22;11041;50.854;20.580;2024-03-08T00:56:20;-2.90;99.90
21759;DHT22;11041;50.854;20.580;2024-03-08T00:58:48;-3.00;99.90
21759;DHT22;11041;50.854;20.580;2024-03-08T01:01:14;-3.10;99.90
21759;DHT22;11041;50.854;20.580;2024-03-08T01:03:43;-3.10;99.90
21759;DHT22;11041;50.854;20.580;2024-03-08T01:06:10;-3.10;99.90
21759;DHT22;11041;50.854;20.580;2024-03-08T01:08:37;-3.00;99.90
21759;DHT22;11041;50.854;20.580;2024-03-08T01:11:04;-3.10;99.90
21759;DHT22;11041;50.854;20.580;2024-03-08T01:13:31;-3.20;99.90
21759;DHT22;11041;50.854;20.580;2024-03-08T01:15:59;-3.20;99.90
21759;DHT22;11041;50.854;20.580;2024-03-08T01:18:25;-3.20;99.90
21759;DHT22;11041;50.854;20.580;2024-03-08T01:20:52;-3.10;99.90
21759;DHT22;11041;50.854;20.580;2024-03-08T01:23:21;-3.00;99.90
21759;DHT22;11041;50.854;20.580;2024-03-08T01:25:48;-3.00;99.90
21759;DHT22;11041;50.854;20.580;2024-03-08T01:28:24;-3.00;99.90
21759;DHT22;11041;50.854;20.580;2024-03-08T01:30:50;-3.00;99.90
21759;DHT22;11041;50.854;20.580;2024-03-08T01:33:25;-3.10;99.90
21759;DHT22;11041;50.854;20.580;2024-03-08T01:35:53;-3.20;99.90
21759;DHT22;11041;50.854;20.580;2024-03-08T01:38:20;-3.20;99.90
21759;DHT22;11041;50.854;20.580;2024-03-08T01:40:47;-3.30;99.90
21759;DHT22;11041;50.854;20.580;2024-03-08T01:43:21;-3.30;99.90
21759;DHT22;11041;50.854;20.580;2024-03-08T01:45:48;-3.30;99.90
21759;DHT22;11041;50.854;20.580;2024-03-08T01:48:16;-3.30;99.90
21759;DHT22;11041;50.854;20.580;2024-03-08T01:50:47;-3.20;99.90
21759;DHT22;11041;50.854;20.580;2024-03-08T01:53:16;-3.20;99.90
21759;DHT22;11041;50.854;20.580;2024-03-08T01:55:46;-3.30;99.90
21759;DHT22;11041;50.854;20.580;2024-03-08T01:58:15;-3.30;99.90
21759;DHT22;11041;50.854;20.580;2024-03-08T02:00:48;-3.30;99.90
21759;DHT22;11041;50.854;20.580;2024-03-08T02:03:16;-3.20;99.90
21759;DHT22;11041;50.854;20.580;2024-03-08T02:05:45;-3.20;99.90
21759;DHT22;11041;50.854;20.580;2024-03-08T02:08:17;-3.20;99.90
21759;DHT22;11041;50.854;20.580;2024-03-08T02:10:45;-3.10;99.90
21759;DHT22;11041;50.854;20.580;2024-03-08T02:13:16;-3.20;99.90
21759;DHT22;11041;50.854;20.580;2024-03-08T02:15:58;-3.20;99.90
21759;DHT22;11041;50.854;20.580;2024-03-08T02:18:26;-3.10;99.90
21759;DHT22;11041;50.854;20.580;2024-03-08T02:21:01;-3.20;99.90
21759;DHT22;11041;50.854;20.580;2024-03-08T02:23:33;-3.40;99.90
21759;DHT22;11041;50.854;20.580;2024-03-08T02:26:00;-3.50;99.90
21759;DHT22;11041;50.854;20.580;2024-03-08T02:28:30;-3.60;99.90
21759;DHT22;11041;50.854;20.580;2024-03-08T02:30:56;-3.60;99.90
21759;DHT22;11041;50.854;20.580;2024-03-08T02:33:24;-3.60;99.90
21759;DHT22;11041;50.854;20.580;2024-03-08T02:35:56;-3.60;99.90
21759;DHT22;11041;50.854;20.580;2024-03-08T02:38:25;-3.60;99.90
21759;DHT22;11041;50.854;20.580;2024-03-08T02:40:53;-3.70;99.90
21759;DHT22;11041;50.854;20.580;2024-03-08T02:43:21;-3.80;99.90
21759;DHT22;11041;50.854;20.580;2024-03-08T02:45:51;-3.90;99.90
21759;DHT22;11041;50.854;20.580;2024-03-08T02:48:22;-3.90;99.90
21759;DHT22;11041;50.854;20.580;2024-03-08T02:50:49;-3.90;99.90
21759;DHT22;11041;50.854;20.580;2024-03-08T02:53:19;-3.70;99.90
21759;DHT22;11041;50.854;20.580;2024-03-08T02:55:45;-3.80;99.90
21759;DHT22;11041;50.854;20.580;2024-03-08T02:58:12;-3.80;99.90
21759;DHT22;11041;50.854;20.580;2024-03-08T03:00:42;-3.60;99.90
21759;DHT22;11041;50.854;20.580;2024-03-08T03:03:12;-3.60;99.90
21759;DHT22;11041;50.854;20.580;2024-03-08T03:05:42;-3.50;99.90
21759;DHT22;11041;50.854;20.580;2024-03-08T03:08:11;-3.30;99.90
21759;DHT22;11041;50.854;20.580;2024-03-08T03:10:39;-3.30;99.90
21759;DHT22;11041;50.854;20.580;2024-03-08T03:13:08;-3.40;99.90
21759;DHT22;11041;50.854;20.580;2024-03-08T03:15:34;-3.50;99.90
21759;DHT22;11041;50.854;20.580;2024-03-08T03:18:03;-3.50;99.90
21759;DHT22;11041;50.854;20.580;2024-03-08T03:20:33;-3.50;99.90
21759;DHT22;11041;50.854;20.580;2024-03-08T03:23:06;-3.60;99.90
21759;DHT22;11041;50.854;20.580;2024-03-08T03:25:34;-3.70;99.90
21759;DHT22;11041;50.854;20.580;2024-03-08T03:28:02;-3.70;99.90
21759;DHT22;11041;50.854;20.580;2024-03-08T03:30:28;-3.90;99.90
21759;DHT22;11041;50.854;20.580;2024-03-08T03:33:02;-3.80;99.90
21759;DHT22;11041;50.854;20.580;2024-03-08T03:35:35;-3.80;99.90
21759;DHT22;11041;50.854;20.580;2024-03-08T03:38:02;-4.00;99.90
21759;DHT22;11041;50.854;20.580;2024-03-08T03:40:42;-4.00;99.90
21759;DHT22;11041;50.854;20.580;2024-03-08T03:43:12;-4.00;99.90
21759;DHT22;11041;50.854;20.580;2024-03-08T03:45:39;-3.90;99.90
21759;DHT22;11041;50.854;20.580;2024-03-08T03:48:08;-3.70;99.90
21759;DHT22;11041;50.854;20.580;2024-03-08T03:50:37;-3.60;99.90
21759;DHT22;11041;50.854;20.580;2024-03-08T03:53:04;-3.70;99.90
21759;DHT22;11041;50.854;20.580;2024-03-08T03:55:34;-3.60;99.90
21759;DHT22;11041;50.854;20.580;2024-03-08T03:58:03;-3.70;99.90
21759;DHT22;11041;50.854;20.580;2024-03-08T04:00:31;-3.80;99.90
21759;DHT22;11041;50.854;20.580;2024-03-08T04:03:00;-3.90;99.90
21759;DHT22;11041;50.854;20.580;2024-03-08T04:05:26;-4.10;99.90
21759;DHT22;11041;50.854;20.580;2024-03-08T04:07:53;-4.00;99.90
21759;DHT22;11041;50.854;20.580;2024-03-08T04:10:19;-3.90;99.90
21759;DHT22;11041;50.854;20.580;2024-03-08T04:12:46;-3.80;99.90
21759;DHT22;11041;50.854;20.580;2024-03-08T04:15:14;-3.80;99.90
21759;DHT22;11041;50.854;20.580;2024-03-08T04:17:41;-3.90;99.90
21759;DHT22;11041;50.854;20.580;2024-03-08T04:20:07;-4.00;99.90
21759;DHT22;11041;50.854;20.580;2024-03-08T04:22:39;-4.00;99.90
21759;DHT22;11041;50.854;20.580;2024-03-08T04:25:06;-4.00;99.90
21759;DHT22;11041;50.854;20.580;2024-03-08T04:27:35;-4.00;99.90
21759;DHT22;11041;50.854;20.580;2024-03-08T04:30:04;-3.80;99.90
21759;DHT22;11041;50.854;20.580;2024-03-08T04:32:34;-3.90;99.90
21759;DHT22;11041;50.854;20.580;2024-03-08T04:35:01;-3.80;99.90
21759;DHT22;11041;50.854;20.580;2024-03-08T04:37:29;-3.80;99.90
21759;DHT22;11041;50.854;20.580;2024-03-08T04:39:55;-3.90;99.90
21759;DHT22;11041;50.854;20.580;2024-03-08T04:42:22;-3.90;99.90
21759;DHT22;11041;50.854;20.580;2024-03-08T04:44:52;-3.90;99.90
21759;DHT22;11041;50.854;20.580;2024-03-08T04:47:22;-4.00;99.90
21759;DHT22;11041;50.854;20.580;2024-03-08T04:49:52;-4.10;99.90
21759;DHT22;11041;50.854;20.580;2024-03-08T04:52:21;-4.20;99.90
21759;DHT22;11041;50.854;20.580;2024-03-08T04:54:47;-4.30;99.90
21759;DHT22;11041;50.854;20.580;2024-03-08T04:57:16;-4.20;99.90
21759;DHT22;11041;50.854;20.580;2024-03-08T04:59:46;-4.10;99.90
21759;DHT22;11041;50.854;20.580;2024-03-08T05:02:16;-4.10;99.90
21759;DHT22;11041;50.854;20.580;2024-03-08T05:04:43;-3.90;99.90
21759;DHT22;11041;50.854;20.580;2024-03-08T05:07:10;-4.00;99.90
21759;DHT22;11041;50.854;20.580;2024-03-08T05:09:37;-4.00;99.90
21759;DHT22;11041;50.854;20.580;2024-03-08T05:12:04;-4.00;99.90
21759;DHT22;11041;50.854;20.580;2024-03-08T05:14:31;-4.10;99.90
21759;DHT22;11041;50.854;20.580;2024-03-08T05:16:58;-4.10;99.90
21759;DHT22;11041;50.854;20.580;2024-03-08T05:19:27;-3.90;99.90
21759;DHT22;11041;50.854;20.580;2024-03-08T05:21:56;-3.80;99.90
21759;DHT22;11041;50.854;20.580;2024-03-08T05:24:23;-3.70;99.90
21759;DHT22;11041;50.854;20.580;2024-03-08T05:26:54;-3.60;99.90
21759;DHT22;11041;50.854;20.580;2024-03-08T05:29:20;-3.60;99.90
21759;DHT22;11041;50.854;20.580;2024-03-08T05:31:53;-3.60;99.90
21759;DHT22;11041;50.854;20.580;2024-03-08T05:34:19;-3.60;99.90
21759;DHT22;11041;50.854;20.580;2024-03-08T05:36:48;-3.60;99.90
21759;DHT22;11041;50.854;20.580;2024-03-08T05:39:17;-3.70;99.90
21759;DHT22;11041;50.854;20.580;2024-03-08T05:41:49;-3.70;99.90
21759;DHT22;11041;50.854;20.580;2024-03-08T05:44:19;-3.70;99.90
21759;DHT22;11041;50.854;20.580;2024-03-08T05:46:45;-3.90;99.90
21759;DHT22;11041;50.854;20.580;2024-03-08T05:49:14;-3.90;99.90
21759;DHT22;11041;50.854;20.580;2024-03-08T05:51:41;-3.90;99.90
21759;DHT22;11041;50.854;20.580;2024-03-08T05:54:10;-3.90;99.90
21759;DHT22;11041;50.854;20.580;2024-03-08T05:56:38;-3.70;99.90
21759;DHT22;11041;50.854;20.580;2024-03-08T05:59:12;-3.50;99.90
21759;DHT22;11041;50.854;20.580;2024-03-08T06:01:41;-3.30;99.90
21759;DHT22;11041;50.854;20.580;2024-03-08T06:04:08;-3.30;99.90
21759;DHT22;11041;50.854;20.580;2024-03-08T06:06:40;-3.20;99.90
21759;DHT22;11041;50.854;20.580;2024-03-08T06:09:06;-3.00;99.90
21759;DHT22;11041;50.854;20.580;2024-03-08T06:11:39;-2.90;99.90
21759;DHT22;11041;50.854;20.580;2024-03-08T06:14:07;-2.90;99.90
21759;DHT22;11041;50.854;20.580;2024-03-08T06:16:33;-2.80;99.90
21759;DHT22;11041;50.854;20.580;2024-03-08T06:19:01;-2.90;99.90
21759;DHT22;11041;50.854;20.580;2024-03-08T06:21:29;-2.70;99.90
21759;DHT22;11041;50.854;20.580;2024-03-08T06:23:57;-2.60;99.90
21759;DHT22;11041;50.854;20.580;2024-03-08T06:26:26;-2.50;99.90
21759;DHT22;11041;50.854;20.580;2024-03-08T06:28:55;-2.40;99.90
21759;DHT22;11041;50.854;20.580;2024-03-08T06:31:24;-2.30;99.90
21759;DHT22;11041;50.854;20.580;2024-03-08T06:33:53;-2.20;99.90
21759;DHT22;11041;50.854;20.580;2024-03-08T06:36:24;-2.10;99.90
21759;DHT22;11041;50.854;20.580;2024-03-08T06:38:51;-2.10;99.90
21759;DHT22;11041;50.854;20.580;2024-03-08T06:41:19;-2.00;99.90
21759;DHT22;11041;50.854;20.580;2024-03-08T06:43:46;-1.90;99.90
21759;DHT22;11041;50.854;20.580;2024-03-08T06:46:19;-1.80;99.90
21759;DHT22;11041;50.854;20.580;2024-03-08T06:48:50;-1.60;99.90
21759;DHT22;11041;50.854;20.580;2024-03-08T06:51:20;-1.50;99.90
21759;DHT22;11041;50.854;20.580;2024-03-08T06:53:46;-1.50;99.90
21759;DHT22;11041;50.854;20.580;2024-03-08T06:56:15;-1.40;99.90
21759;DHT22;11041;50.854;20.580;2024-03-08T06:58:44;-1.40;99.90
21759;DHT22;11041;50.854;20.580;2024-03-08T07:01:13;-1.20;99.90
21759;DHT22;11041;50.854;20.580;2024-03-08T07:03:43;-1.20;99.90
21759;DHT22;11041;50.854;20.580;2024-03-08T07:06:12;-1.10;99.90
21759;DHT22;11041;50.854;20.580;2024-03-08T07:08:40;-0.90;99.90
21759;DHT22;11041;50.854;20.580;2024-03-08T07:11:08;-0.90;99.90
21759;DHT22;11041;50.854;20.580;2024-03-08T07:13:35;-0.70;99.90
21759;DHT22;11041;50.854;20.580;2024-03-08T07:16:04;-0.60;99.90
21759;DHT22;11041;50.854;20.580;2024-03-08T07:18:35;-0.40;99.90
21759;DHT22;11041;50.854;20.580;2024-03-08T07:21:05;-0.40;99.90
21759;DHT22;11041;50.854;20.580;2024-03-08T07:23:32;-0.30;99.90
21759;DHT22;11041;50.854;20.580;2024-03-08T07:26:29;-0.30;99.90
21759;DHT22;11041;50.854;20.580;2024-03-08T07:28:56;0.00;99.90
21759;DHT22;11041;50.854;20.580;2024-03-08T07:31:27;0.10;99.90
21759;DHT22;11041;50.854;20.580;2024-03-08T07:34:26;0.30;99.90
21759;DHT22;11041;50.854;20.580;2024-03-08T07:36:53;0.50;99.90
21759;DHT22;11041;50.854;20.580;2024-03-08T07:39:22;0.70;99.90
21759;DHT22;11041;50.854;20.580;2024-03-08T07:41:49;0.80;99.90
21759;DHT22;11041;50.854;20.580;2024-03-08T07:44:23;0.90;99.90
21759;DHT22;11041;50.854;20.580;2024-03-08T07:46:51;1.10;99.90
21759;DHT22;11041;50.854;20.580;2024-03-08T07:49:17;1.10;99.90
21759;DHT22;11041;50.854;20.580;2024-03-08T07:51:49;1.30;99.90
21759;DHT22;11041;50.854;20.580;2024-03-08T07:54:17;1.40;99.90
21759;DHT22;11041;50.854;20.580;2024-03-08T07:56:44;1.50;99.90
21759;DHT22;11041;50.854;20.580;2024-03-08T07:59:10;1.60;99.90
21759;DHT22;11041;50.854;20.580;2024-03-08T08:01:39;1.70;99.90
21759;DHT22;11041;50.854;20.580;2024-03-08T08:04:10;1.80;99.90
21759;DHT22;11041;50.854;20.580;2024-03-08T08:06:41;2.00;99.90
21759;DHT22;11041;50.854;20.580;2024-03-08T08:09:10;2.10;99.90
21759;DHT22;11041;50.854;20.580;2024-03-08T08:11:48;2.10;99.90
21759;DHT22;11041;50.854;20.580;2024-03-08T08:14:16;2.20;99.90
21759;DHT22;11041;50.854;20.580;2024-03-08T08:16:42;2.30;99.90
21759;DHT22;11041;50.854;20.580;2024-03-08T08:19:10;2.30;99.90
21759;DHT22;11041;50.854;20.580;2024-03-08T08:21:39;2.40;99.90
21759;DHT22;11041;50.854;20.580;2024-03-08T08:24:06;2.50;99.90
21759;DHT22;11041;50.854;20.580;2024-03-08T08:26:33;2.50;99.90
21759;DHT22;11041;50.854;20.580;2024-03-08T08:29:00;2.70;99.90
21759;DHT22;11041;50.854;20.580;2024-03-08T08:31:27;2.60;99.90
21759;DHT22;11041;50.854;20.580;2024-03-08T08:33:55;2.70;99.90
21759;DHT22;11041;50.854;20.580;2024-03-08T08:36:24;2.90;99.90
21759;DHT22;11041;50.854;20.580;2024-03-08T08:38:51;2.90;99.90
21759;DHT22;11041;50.854;20.580;2024-03-08T08:41:22;3.00;99.90
21759;DHT22;11041;50.854;20.580;2024-03-08T08:43:51;3.10;99.90
21759;DHT22;11041;50.854;20.580;2024-03-08T08:46:19;3.10;99.90
21759;DHT22;11041;50.854;20.580;2024-03-08T08:48:45;3.10;99.90
21759;DHT22;11041;50.854;20.580;2024-03-08T08:51:13;3.10;99.90
21759;DHT22;11041;50.854;20.580;2024-03-08T08:53:40;3.20;99.90
21759;DHT22;11041;50.854;20.580;2024-03-08T08:56:09;3.20;99.90
21759;DHT22;11041;50.854;20.580;2024-03-08T08:58:44;3.30;99.90
21759;DHT22;11041;50.854;20.580;2024-03-08T09:01:11;3.40;99.90
21759;DHT22;11041;50.854;20.580;2024-03-08T09:03:39;3.50;99.90
21759;DHT22;11041;50.854;20.580;2024-03-08T09:06:07;3.30;99.90
21759;DHT22;11041;50.854;20.580;2024-03-08T09:08:46;3.40;99.90
21759;DHT22;11041;50.854;20.580;2024-03-08T09:11:13;3.50;99.90
21759;DHT22;11041;50.854;20.580;2024-03-08T09:13:44;3.60;99.90
21759;DHT22;11041;50.854;20.580;2024-03-08T09:16:12;3.60;99.90
21759;DHT22;11041;50.854;20.580;2024-03-08T09:18:38;3.80;99.90
21759;DHT22;11041;50.854;20.580;2024-03-08T09:21:05;3.80;99.90
21759;DHT22;11041;50.854;20.580;2024-03-08T09:23:37;3.60;99.90
21759;DHT22;11041;50.854;20.580;2024-03-08T09:26:04;3.70;99.90
21759;DHT22;11041;50.854;20.580;2024-03-08T09:28:30;3.80;99.90
21759;DHT22;11041;50.854;20.580;2024-03-08T09:30:59;3.80;99.90
21759;DHT22;11041;50.854;20.580;2024-03-08T09:33:27;3.70;99.90
21759;DHT22;11041;50.854;20.580;2024-03-08T09:35:54;3.90;99.90
21759;DHT22;11041;50.854;20.580;2024-03-08T09:38:23;4.10;99.90
21759;DHT22;11041;50.854;20.580;2024-03-08T09:40:51;4.10;99.90
21759;DHT22;11041;50.854;20.580;2024-03-08T09:43:22;4.20;99.90
21759;DHT22;11041;50.854;20.580;2024-03-08T09:45:51;4.30;99.90
21759;DHT22;11041;50.854;20.580;2024-03-08T09:48:22;4.20;99.90
21759;DHT22;11041;50.854;20.580;2024-03-08T09:50:50;4.30;99.90
21759;DHT22;11041;50.854;20.580;2024-03-08T09:53:22;4.30;99.90
21759;DHT22;11041;50.854;20.580;2024-03-08T09:55:48;4.50;99.90
21759;DHT22;11041;50.854;20.580;2024-03-08T09:58:16;4.50;99.90
21759;DHT22;11041;50.854;20.580;2024-03-08T10:00:59;4.50;99.90
21759;DHT22;11041;50.854;20.580;2024-03-08T10:03:32;4.50;99.90
21759;DHT22;11041;50.854;20.580;2024-03-08T10:06:01;4.60;99.90
21759;DHT22;11041;50.854;20.580;2024-03-08T10:08:29;4.60;99.90
21759;DHT22;11041;50.854;20.580;2024-03-08T10:10:59;4.60;99.90
21759;DHT22;11041;50.854;20.580;2024-03-08T10:13:28;4.70;99.90
21759;DHT22;11041;50.854;20.580;2024-03-08T10:15:55;4.80;99.90
21759;DHT22;11041;50.854;20.580;2024-03-08T10:18:22;4.80;99.90
21759;DHT22;11041;50.854;20.580;2024-03-08T10:21:09;4.90;99.90
21759;DHT22;11041;50.854;20.580;2024-03-08T10:23:37;4.80;99.90
21759;DHT22;11041;50.854;20.580;2024-03-08T10:26:14;4.80;99.90
21759;DHT22;11041;50.854;20.580;2024-03-08T10:28:43;4.80;99.90
21759;DHT22;11041;50.854;20.580;2024-03-08T10:31:11;4.80;99.90
21759;DHT22;11041;50.854;20.580;2024-03-08T10:33:37;4.90;99.90
21759;DHT22;11041;50.854;20.580;2024-03-08T10:36:08;4.90;99.90
21759;DHT22;11041;50.854;20.580;2024-03-08T10:38:38;5.10;99.90
21759;DHT22;11041;50.854;20.580;2024-03-08T10:41:11;5.20;99.90
21759;DHT22;11041;50.854;20.580;2024-03-08T10:47:11;5.30;99.90
21759;DHT22;11041;50.854;20.580;2024-03-08T10:50:11;5.50;99.90
21759;DHT22;11041;50.854;20.580;2024-03-08T10:52:51;5.50;99.90
21759;DHT22;11041;50.854;20.580;2024-03-08T10:55:19;5.50;99.90
21759;DHT22;11041;50.854;20.580;2024-03-08T10:57:48;5.50;99.90
21759;DHT22;11041;50.854;20.580;2024-03-08T11:00:18;5.50;99.90
21759;DHT22;11041;50.854;20.580;2024-03-08T11:02:53;5.50;99.90
21759;DHT22;11041;50.854;20.580;2024-03-08T11:05:40;5.60;99.90
21759;DHT22;11041;50.854;20.580;2024-03-08T11:08:20;5.60;99.90
21759;DHT22;11041;50.854;20.580;2024-03-08T11:10:50;5.80;99.90
21759;DHT22;11041;50.854;20.580;2024-03-08T11:13:48;5.90;99.90
21759;DHT22;11041;50.854;20.580;2024-03-08T11:19:23;5.70;99.90
21759;DHT22;11041;50.854;20.580;2024-03-08T11:22:00;5.90;99.90
21759;DHT22;11041;50.854;20.580;2024-03-08T11:24:37;6.10;99.90
21759;DHT22;11041;50.854;20.580;2024-03-08T11:27:06;6.20;99.90
21759;DHT22;11041;50.854;20.580;2024-03-08T11:29:35;6.30;99.90
21759;DHT22;11041;50.854;20.580;2024-03-08T11:32:46;6.30;99.90
21759;DHT22;11041;50.854;20.580;2024-03-08T11:35:21;6.20;99.90
21759;DHT22;11041;50.854;20.580;2024-03-08T11:37:49;6.30;99.90
21759;DHT22;11041;50.854;20.580;2024-03-08T11:40:15;6.30;99.90
21759;DHT22;11041;50.854;20.580;2024-03-08T11:42:46;6.40;99.90
21759;DHT22;11041;50.854;20.580;2024-03-08T11:45:18;6.40;99.90
21759;DHT22;11041;50.854;20.580;2024-03-08T11:47:47;6.50;99.90
21759;DHT22;11041;50.854;20.580;2024-03-08T11:50:16;6.50;99.90
21759;DHT22;11041;50.854;20.580;2024-03-08T11:52:45;6.60;99.90
21759;DHT22;11041;50.854;20.580;2024-03-08T11:55:12;6.70;99.90
21759;DHT22;11041;50.854;20.580;2024-03-08T11:57:39;6.80;99.90
21759;DHT22;11041;50.854;20.580;2024-03-08T12:00:16;7.20;99.90
21759;DHT22;11041;50.854;20.580;2024-03-08T12:03:05;7.20;99.90
21759;DHT22;11041;50.854;20.580;2024-03-08T12:05:33;7.10;99.90
21759;DHT22;11041;50.854;20.580;2024-03-08T12:08:02;7.20;99.90
21759;DHT22;11041;50.854;20.580;2024-03-08T12:10:29;7.50;99.90
21759;DHT22;11041;50.854;20.580;2024-03-08T12:13:00;7.70;99.90
21759;DHT22;11041;50.854;20.580;2024-03-08T12:15:28;7.60;99.90
21759;DHT22;11041;50.854;20.580;2024-03-08T12:17:59;7.80;99.90
21759;DHT22;11041;50.854;20.580;2024-03-08T12:20:49;7.80;99.90
21759;DHT22;11041;50.854;20.580;2024-03-08T12:23:16;7.70;99.90
21759;DHT22;11041;50.854;20.580;2024-03-08T12:25:42;7.60;99.90
21759;DHT22;11041;50.854;20.580;2024-03-08T12:28:13;7.60;99.90
21759;DHT22;11041;50.854;20.580;2024-03-08T12:30:48;7.70;99.90
21759;DHT22;11041;50.854;20.580;2024-03-08T12:33:21;7.80;99.90
21759;DHT22;11041;50.854;20.580;2024-03-08T12:35:53;7.80;99.90
21759;DHT22;11041;50.854;20.580;2024-03-08T12:38:28;8.00;99.90
21759;DHT22;11041;50.854;20.580;2024-03-08T12:41:01;8.00;99.90
21759;DHT22;11041;50.854;20.580;2024-03-08T12:43:30;8.10;99.90
21759;DHT22;11041;50.854;20.580;2024-03-08T12:46:00;8.20;99.90
21759;DHT22;11041;50.854;20.580;2024-03-08T12:48:33;8.20;99.90
21759;DHT22;11041;50.854;20.580;2024-03-08T12:51:01;8.50;99.90
21759;DHT22;11041;50.854;20.580;2024-03-08T12:53:27;8.50;99.90
21759;DHT22;11041;50.854;20.580;2024-03-08T12:55:56;8.30;99.30
21759;DHT22;11041;50.854;20.580;2024-03-08T12:58:23;8.20;99.90
21759;DHT22;11041;50.854;20.580;2024-03-08T13:00:50;8.30;99.90
21759;DHT22;11041;50.854;20.580;2024-03-08T13:03:16;8.40;99.40
21759;DHT22;11041;50.854;20.580;2024-03-08T13:05:43;8.30;99.40
21759;DHT22;11041;50.854;20.580;2024-03-08T13:08:12;8.30;99.10
21759;DHT22;11041;50.854;20.580;2024-03-08T13:10:40;8.30;99.70
21759;DHT22;11041;50.854;20.580;2024-03-08T13:13:12;8.60;99.80
21759;DHT22;11041;50.854;20.580;2024-03-08T13:15:42;8.50;98.10
21759;DHT22;11041;50.854;20.580;2024-03-08T13:18:12;8.50;97.10
21759;DHT22;11041;50.854;20.580;2024-03-08T13:20:42;8.60;98.10
21759;DHT22;11041;50.854;20.580;2024-03-08T13:23:10;8.60;97.40
21759;DHT22;11041;50.854;20.580;2024-03-08T13:25:38;8.50;96.90
21759;DHT22;11041;50.854;20.580;2024-03-08T13:28:04;8.50;97.20
21759;DHT22;11041;50.854;20.580;2024-03-08T13:30:32;8.20;96.30
21759;DHT22;11041;50.854;20.580;2024-03-08T13:32:59;8.10;96.40
21759;DHT22;11041;50.854;20.580;2024-03-08T13:35:26;8.20;96.90
21759;DHT22;11041;50.854;20.580;2024-03-08T13:37:56;8.10;96.70
21759;DHT22;11041;50.854;20.580;2024-03-08T13:40:23;8.10;96.90
21759;DHT22;11041;50.854;20.580;2024-03-08T13:42:51;8.00;97.00
21759;DHT22;11041;50.854;20.580;2024-03-08T13:45:18;7.90;96.40
21759;DHT22;11041;50.854;20.580;2024-03-08T13:47:50;7.80;96.30
21759;DHT22;11041;50.854;20.580;2024-03-08T13:50:22;7.80;96.50
21759;DHT22;11041;50.854;20.580;2024-03-08T13:52:49;7.90;97.40
21759;DHT22;11041;50.854;20.580;2024-03-08T13:55:20;7.80;96.10
21759;DHT22;11041;50.854;20.580;2024-03-08T13:57:49;7.80;96.40
21759;DHT22;11041;50.854;20.580;2024-03-08T14:00:17;7.90;97.90
21759;DHT22;11041;50.854;20.580;2024-03-08T14:02:44;7.70;95.90
21759;DHT22;11041;50.854;20.580;2024-03-08T14:05:10;7.70;96.80
21759;DHT22;11041;50.854;20.580;2024-03-08T14:07:39;7.80;97.00
21759;DHT22;11041;50.854;20.580;2024-03-08T14:10:07;7.90;97.00
21759;DHT22;11041;50.854;20.580;2024-03-08T14:12:36;7.80;97.00
21759;DHT22;11041;50.854;20.580;2024-03-08T14:15:04;7.80;96.30
21759;DHT22;11041;50.854;20.580;2024-03-08T14:17:33;7.80;96.30
21759;DHT22;11041;50.854;20.580;2024-03-08T14:20:00;7.80;95.70
21759;DHT22;11041;50.854;20.580;2024-03-08T14:22:26;7.80;96.10
21759;DHT22;11041;50.854;20.580;2024-03-08T14:24:54;7.70;97.30
21759;DHT22;11041;50.854;20.580;2024-03-08T14:27:21;7.70;96.10
21759;DHT22;11041;50.854;20.580;2024-03-08T14:29:51;7.70;96.60
21759;DHT22;11041;50.854;20.580;2024-03-08T14:32:17;7.60;97.70
21759;DHT22;11041;50.854;20.580;2024-03-08T14:34:46;7.60;98.20
21759;DHT22;11041;50.854;20.580;2024-03-08T14:37:13;7.60;98.80
21759;DHT22;11041;50.854;20.580;2024-03-08T14:39:41;7.60;98.50
21759;DHT22;11041;50.854;20.580;2024-03-08T14:42:07;7.60;98.30
21759;DHT22;11041;50.854;20.580;2024-03-08T14:44:39;7.60;97.90
21759;DHT22;11041;50.854;20.580;2024-03-08T14:47:06;7.50;97.00
21759;DHT22;11041;50.854;20.580;2024-03-08T14:49:33;7.50;96.90
21759;DHT22;11041;50.854;20.580;2024-03-08T14:52:02;7.40;96.60
21759;DHT22;11041;50.854;20.580;2024-03-08T14:54:31;7.40;96.40
21759;DHT22;11041;50.854;20.580;2024-03-08T14:56:58;7.40;95.80
21759;DHT22;11041;50.854;20.580;2024-03-08T14:59:25;7.40;95.70
21759;DHT22;11041;50.854;20.580;2024-03-08T15:01:55;7.30;96.50
21759;DHT22;11041;50.854;20.580;2024-03-08T15:04:22;7.20;96.80
21759;DHT22;11041;50.854;20.580;2024-03-08T15:06:48;7.10;96.90
21759;DHT22;11041;50.854;20.580;2024-03-08T15:09:15;7.10;96.50
21759;DHT22;11041;50.854;20.580;2024-03-08T15:11:47;7.00;96.40
21759;DHT22;11041;50.854;20.580;2024-03-08T15:14:16;6.90;96.70
21759;DHT22;11041;50.854;20.580;2024-03-08T15:16:48;6.80;97.50
21759;DHT22;11041;50.854;20.580;2024-03-08T15:19:17;6.80;97.20
21759;DHT22;11041;50.854;20.580;2024-03-08T15:21:49;6.80;97.20
21759;DHT22;11041;50.854;20.580;2024-03-08T15:24:17;6.70;97.50
21759;DHT22;11041;50.854;20.580;2024-03-08T15:26:48;6.60;97.90
21759;DHT22;11041;50.854;20.580;2024-03-08T15:29:21;6.70;98.80
21759;DHT22;11041;50.854;20.580;2024-03-08T15:31:52;6.60;99.00
21759;DHT22;11041;50.854;20.580;2024-03-08T15:34:22;6.60;99.30
21759;DHT22;11041;50.854;20.580;2024-03-08T15:36:55;6.60;99.90
21759;DHT22;11041;50.854;20.580;2024-03-08T15:39:26;6.50;99.90
21759;DHT22;11041;50.854;20.580;2024-03-08T15:42:00;6.40;99.90
21759;DHT22;11041;50.854;20.580;2024-03-08T15:44:31;6.30;99.90